sensor_id;sensor_type;location;lat;lon;timestamp;temperature;humidity
53926;DHT22;39836;52.754;6.866;2022-10-30T00:01:57;15.20;79.60
53926;DHT22;39836;52.754;6.866;2022-10-30T00:04:22;15.10;79.50
53926;DHT22;39836;52.754;6.866;2022-10-30T00:06:48;15.10;79.50
53926;DHT22;39836;52.754;6.866;2022-10-30T00:09:14;15.10;79.50
53926;DHT22;39836;52.754;6.866;2022-10-30T00:11:40;15.00;79.50
53926;DHT22;39836;52.754;6.866;2022-10-30T00:14:07;15.00;79.60
53926;DHT22;39836;52.754;6.866;2022-10-30T00:16:33;14.90;79.60
53926;DHT22;39836;52.754;6.866;2022-10-30T00:18:59;14.90;79.60
53926;DHT22;39836;52.754;6.866;2022-10-30T00:21:24;14.90;79.60
53926;DHT22;39836;52.754;6.866;2022-10-30T00:23:51;14.90;79.70
53926;DHT22;39836;52.754;6.866;2022-10-30T00:26:19;14.80;79.70
53926;DHT22;39836;52.754;6.866;2022-10-30T00:28:51;14.80;79.70
53926;DHT22;39836;52.754;6.866;2022-10-30T00:31:17;14.70;79.70
53926;DHT22;39836;52.754;6.866;2022-10-30T00:33:43;14.70;79.70
53926;DHT22;39836;52.754;6.866;2022-10-30T00:36:09;14.60;79.60
53926;DHT22;39836;52.754;6.866;2022-10-30T00:38:34;14.70;79.70
53926;DHT22;39836;52.754;6.866;2022-10-30T00:41:00;14.60;79.60
53926;DHT22;39836;52.754;6.866;2022-10-30T00:43:37;14.60;79.60
53926;DHT22;39836;52.754;6.866;2022-10-30T00:48:38;14.50;79.60
53926;DHT22;39836;52.754;6.866;2022-10-30T00:51:07;14.50;79.70
53926;DHT22;39836;52.754;6.866;2022-10-30T00:53:34;14.50;79.70
53926;DHT22;39836;52.754;6.866;2022-10-30T00:56:03;14.40;79.70
53926;DHT22;39836;52.754;6.866;2022-10-30T00:58:37;14.40;79.70
53926;DHT22;39836;52.754;6.866;2022-10-30T01:01:06;14.40;79.80
53926;DHT22;39836;52.754;6.866;2022-10-30T01:03:34;14.40;79.80
53926;DHT22;39836;52.754;6.866;2022-10-30T01:06:04;14.40;79.80
53926;DHT22;39836;52.754;6.866;2022-10-30T01:08:31;14.30;79.80
53926;DHT22;39836;52.754;6.866;2022-10-30T01:10:58;14.20;79.70
53926;DHT22;39836;52.754;6.866;2022-10-30T01:13:25;14.10;79.80
53926;DHT22;39836;52.754;6.866;2022-10-30T01:18:39;14.00;79.80
53926;DHT22;39836;52.754;6.866;2022-10-30T01:23:47;13.80;80.00
53926;DHT22;39836;52.754;6.866;2022-10-30T01:29:11;13.80;80.00
53926;DHT22;39836;52.754;6.866;2022-10-30T01:34:36;13.80;80.10
53926;DHT22;39836;52.754;6.866;2022-10-30T01:37:13;13.90;80.00
53926;DHT22;39836;52.754;6.866;2022-10-30T01:39:40;13.90;80.00
53926;DHT22;39836;52.754;6.866;2022-10-30T01:45:36;13.90;79.90
53926;DHT22;39836;52.754;6.866;2022-10-30T01:56:27;14.00;79.90
53926;DHT22;39836;52.754;6.866;2022-10-30T02:01:20;14.00;79.90
53926;DHT22;39836;52.754;6.866;2022-10-30T02:03:47;14.00;79.90
53926;DHT22;39836;52.754;6.866;2022-10-30T02:06:13;14.00;79.90
53926;DHT22;39836;52.754;6.866;2022-10-30T02:08:38;14.00;79.90
53926;DHT22;39836;52.754;6.866;2022-10-30T02:11:04;14.00;79.90
53926;DHT22;39836;52.754;6.866;2022-10-30T02:13:30;14.00;79.90
53926;DHT22;39836;52.754;6.866;2022-10-30T02:15:57;14.00;79.90
53926;DHT22;39836;52.754;6.866;2022-10-30T02:18:23;14.00;79.90
53926;DHT22;39836;52.754;6.866;2022-10-30T02:20:50;14.00;79.90
53926;DHT22;39836;52.754;6.866;2022-10-30T02:23:15;14.00;79.90
53926;DHT22;39836;52.754;6.866;2022-10-30T02:25:44;14.00;79.90
53926;DHT22;39836;52.754;6.866;2022-10-30T02:28:10;13.90;79.80
53926;DHT22;39836;52.754;6.866;2022-10-30T02:30:36;13.80;79.80
53926;DHT22;39836;52.754;6.866;2022-10-30T02:33:02;13.80;79.80
53926;DHT22;39836;52.754;6.866;2022-10-30T02:35:29;13.80;79.90
53926;DHT22;39836;52.754;6.866;2022-10-30T02:37:54;13.80;79.80
53926;DHT22;39836;52.754;6.866;2022-10-30T02:40:20;13.80;79.90
53926;DHT22;39836;52.754;6.866;2022-10-30T02:42:53;13.80;79.90
53926;DHT22;39836;52.754;6.866;2022-10-30T02:45:19;13.80;79.90
53926;DHT22;39836;52.754;6.866;2022-10-30T02:47:45;13.80;79.90
53926;DHT22;39836;52.754;6.866;2022-10-30T02:50:11;13.80;79.90
53926;DHT22;39836;52.754;6.866;2022-10-30T02:52:36;13.70;79.90
53926;DHT22;39836;52.754;6.866;2022-10-30T02:55:02;13.70;79.90
53926;DHT22;39836;52.754;6.866;2022-10-30T02:57:28;13.60;80.10
53926;DHT22;39836;52.754;6.866;2022-10-30T02:59:54;13.60;80.10
53926;DHT22;39836;52.754;6.866;2022-10-30T03:02:19;13.60;80.20
53926;DHT22;39836;52.754;6.866;2022-10-30T03:04:45;13.50;80.20
53926;DHT22;39836;52.754;6.866;2022-10-30T03:07:11;13.50;80.10
53926;DHT22;39836;52.754;6.866;2022-10-30T03:09:37;13.40;80.00
53926;DHT22;39836;52.754;6.866;2022-10-30T03:12:03;13.40;80.00
53926;DHT22;39836;52.754;6.866;2022-10-30T03:14:28;13.30;80.00
53926;DHT22;39836;52.754;6.866;2022-10-30T03:16:54;13.30;80.10
53926;DHT22;39836;52.754;6.866;2022-10-30T03:19:20;13.30;80.10
53926;DHT22;39836;52.754;6.866;2022-10-30T03:21:45;13.30;80.20
53926;DHT22;39836;52.754;6.866;2022-10-30T03:24:11;13.30;80.20
53926;DHT22;39836;52.754;6.866;2022-10-30T03:26:37;13.30;80.20
53926;DHT22;39836;52.754;6.866;2022-10-30T03:29:02;13.30;80.30
53926;DHT22;39836;52.754;6.866;2022-10-30T03:31:30;13.20;80.20
53926;DHT22;39836;52.754;6.866;2022-10-30T03:33:57;13.10;80.20
53926;DHT22;39836;52.754;6.866;2022-10-30T03:36:24;13.10;80.20
53926;DHT22;39836;52.754;6.866;2022-10-30T03:38:50;13.00;80.30
53926;DHT22;39836;52.754;6.866;2022-10-30T03:41:16;12.90;80.40
53926;DHT22;39836;52.754;6.866;2022-10-30T03:43:41;12.90;80.30
53926;DHT22;39836;52.754;6.866;2022-10-30T03:46:08;12.80;80.20
53926;DHT22;39836;52.754;6.866;2022-10-30T03:48:35;12.80;80.30
53926;DHT22;39836;52.754;6.866;2022-10-30T03:51:00;12.80;80.30
53926;DHT22;39836;52.754;6.866;2022-10-30T03:53:27;12.80;80.30
53926;DHT22;39836;52.754;6.866;2022-10-30T03:55:58;12.80;80.30
53926;DHT22;39836;52.754;6.866;2022-10-30T03:58:26;12.80;80.30
53926;DHT22;39836;52.754;6.866;2022-10-30T04:00:52;12.80;80.40
53926;DHT22;39836;52.754;6.866;2022-10-30T04:03:18;12.80;80.40
53926;DHT22;39836;52.754;6.866;2022-10-30T04:05:43;12.70;80.30
53926;DHT22;39836;52.754;6.866;2022-10-30T04:08:13;12.70;80.40
53926;DHT22;39836;52.754;6.866;2022-10-30T04:10:46;12.70;80.40
53926;DHT22;39836;52.754;6.866;2022-10-30T04:13:13;12.70;80.40
53926;DHT22;39836;52.754;6.866;2022-10-30T04:15:40;12.60;80.40
53926;DHT22;39836;52.754;6.866;2022-10-30T04:18:06;12.50;80.30
53926;DHT22;39836;52.754;6.866;2022-10-30T04:20:32;12.40;80.20
53926;DHT22;39836;52.754;6.866;2022-10-30T04:23:00;12.30;80.30
53926;DHT22;39836;52.754;6.866;2022-10-30T04:25:26;12.30;80.60
53926;DHT22;39836;52.754;6.866;2022-10-30T04:27:53;12.20;80.40
53926;DHT22;39836;52.754;6.866;2022-10-30T04:30:20;12.20;80.40
53926;DHT22;39836;52.754;6.866;2022-10-30T04:32:51;12.20;80.40
53926;DHT22;39836;52.754;6.866;2022-10-30T04:35:19;12.20;80.40
53926;DHT22;39836;52.754;6.866;2022-10-30T04:37:55;12.20;80.40
53926;DHT22;39836;52.754;6.866;2022-10-30T04:40:23;12.20;80.40
53926;DHT22;39836;52.754;6.866;2022-10-30T04:42:49;12.20;80.40
53926;DHT22;39836;52.754;6.866;2022-10-30T04:45:15;12.20;80.40
53926;DHT22;39836;52.754;6.866;2022-10-30T04:47:40;12.20;80.40
53926;DHT22;39836;52.754;6.866;2022-10-30T04:50:06;12.20;80.40
53926;DHT22;39836;52.754;6.866;2022-10-30T04:52:32;12.20;80.40
53926;DHT22;39836;52.754;6.866;2022-10-30T04:54:57;12.20;80.40
53926;DHT22;39836;52.754;6.866;2022-10-30T04:57:23;12.20;80.40
53926;DHT22;39836;52.754;6.866;2022-10-30T04:59:49;12.30;80.50
53926;DHT22;39836;52.754;6.866;2022-10-30T05:02:14;12.20;80.40
53926;DHT22;39836;52.754;6.866;2022-10-30T05:04:40;12.20;80.40
53926;DHT22;39836;52.754;6.866;2022-10-30T05:07:06;12.20;80.40
53926;DHT22;39836;52.754;6.866;2022-10-30T05:09:32;12.20;80.40
53926;DHT22;39836;52.754;6.866;2022-10-30T05:11:57;12.20;80.50
53926;DHT22;39836;52.754;6.866;2022-10-30T05:14:23;12.10;80.40
53926;DHT22;39836;52.754;6.866;2022-10-30T05:16:49;12.20;80.50
53926;DHT22;39836;52.754;6.866;2022-10-30T05:19:15;12.10;80.40
53926;DHT22;39836;52.754;6.866;2022-10-30T05:21:40;12.10;80.50
53926;DHT22;39836;52.754;6.866;2022-10-30T05:24:06;12.00;80.40
53926;DHT22;39836;52.754;6.866;2022-10-30T05:26:32;12.00;80.50
53926;DHT22;39836;52.754;6.866;2022-10-30T05:28:57;12.00;80.50
53926;DHT22;39836;52.754;6.866;2022-10-30T05:31:23;12.00;80.50
53926;DHT22;39836;52.754;6.866;2022-10-30T05:33:49;12.00;80.50
53926;DHT22;39836;52.754;6.866;2022-10-30T05:36:14;12.00;80.50
53926;DHT22;39836;52.754;6.866;2022-10-30T05:38:40;12.00;80.50
53926;DHT22;39836;52.754;6.866;2022-10-30T05:41:06;12.00;80.50
53926;DHT22;39836;52.754;6.866;2022-10-30T05:43:31;12.00;80.50
53926;DHT22;39836;52.754;6.866;2022-10-30T05:45:57;12.00;80.60
53926;DHT22;39836;52.754;6.866;2022-10-30T05:48:23;11.90;80.50
53926;DHT22;39836;52.754;6.866;2022-10-30T05:50:48;11.90;80.60
53926;DHT22;39836;52.754;6.866;2022-10-30T05:53:14;11.90;80.90
53926;DHT22;39836;52.754;6.866;2022-10-30T05:55:39;11.80;80.80
53926;DHT22;39836;52.754;6.866;2022-10-30T05:58:06;11.80;80.80
53926;DHT22;39836;52.754;6.866;2022-10-30T06:00:33;11.80;80.70
53926;DHT22;39836;52.754;6.866;2022-10-30T06:03:04;11.80;80.70
53926;DHT22;39836;52.754;6.866;2022-10-30T06:05:32;11.80;80.90
53926;DHT22;39836;52.754;6.866;2022-10-30T06:07:58;11.70;80.80
53926;DHT22;39836;52.754;6.866;2022-10-30T06:10:24;11.80;80.80
53926;DHT22;39836;52.754;6.866;2022-10-30T06:13:01;11.70;80.90
53926;DHT22;39836;52.754;6.866;2022-10-30T06:15:27;11.70;80.80
53926;DHT22;39836;52.754;6.866;2022-10-30T06:17:53;11.70;80.80
53926;DHT22;39836;52.754;6.866;2022-10-30T06:20:21;11.80;80.90
53926;DHT22;39836;52.754;6.866;2022-10-30T06:22:58;11.80;80.90
53926;DHT22;39836;52.754;6.866;2022-10-30T06:25:25;11.90;81.00
53926;DHT22;39836;52.754;6.866;2022-10-30T06:27:51;11.90;80.90
53926;DHT22;39836;52.754;6.866;2022-10-30T06:30:17;12.00;80.90
53926;DHT22;39836;52.754;6.866;2022-10-30T06:32:42;12.00;80.90
53926;DHT22;39836;52.754;6.866;2022-10-30T06:35:08;12.00;80.90
53926;DHT22;39836;52.754;6.866;2022-10-30T06:37:34;11.90;80.80
53926;DHT22;39836;52.754;6.866;2022-10-30T06:40:00;11.90;80.80
53926;DHT22;39836;52.754;6.866;2022-10-30T06:42:26;12.00;80.80
53926;DHT22;39836;52.754;6.866;2022-10-30T06:44:51;11.90;80.80
53926;DHT22;39836;52.754;6.866;2022-10-30T06:47:17;11.90;80.80
53926;DHT22;39836;52.754;6.866;2022-10-30T06:49:43;11.90;80.80
53926;DHT22;39836;52.754;6.866;2022-10-30T06:52:08;12.00;80.80
53926;DHT22;39836;52.754;6.866;2022-10-30T06:54:34;12.00;80.90
53926;DHT22;39836;52.754;6.866;2022-10-30T06:57:00;12.10;81.00
53926;DHT22;39836;52.754;6.866;2022-10-30T06:59:26;12.10;81.00
53926;DHT22;39836;52.754;6.866;2022-10-30T07:01:52;12.10;80.90
53926;DHT22;39836;52.754;6.866;2022-10-30T07:04:17;12.10;80.90
53926;DHT22;39836;52.754;6.866;2022-10-30T07:06:43;12.20;81.00
53926;DHT22;39836;52.754;6.866;2022-10-30T07:09:09;12.30;81.00
53926;DHT22;39836;52.754;6.866;2022-10-30T07:11:35;12.30;81.00
53926;DHT22;39836;52.754;6.866;2022-10-30T07:14:00;12.40;81.10
53926;DHT22;39836;52.754;6.866;2022-10-30T07:16:26;12.40;81.00
53926;DHT22;39836;52.754;6.866;2022-10-30T07:18:52;12.40;81.00
53926;DHT22;39836;52.754;6.866;2022-10-30T07:21:18;12.40;81.00
53926;DHT22;39836;52.754;6.866;2022-10-30T07:23:43;12.50;81.10
53926;DHT22;39836;52.754;6.866;2022-10-30T07:26:09;12.50;81.10
53926;DHT22;39836;52.754;6.866;2022-10-30T07:28:35;12.50;81.10
53926;DHT22;39836;52.754;6.866;2022-10-30T07:31:00;12.60;81.20
53926;DHT22;39836;52.754;6.866;2022-10-30T07:33:26;12.80;81.20
53926;DHT22;39836;52.754;6.866;2022-10-30T07:35:51;12.70;81.10
53926;DHT22;39836;52.754;6.866;2022-10-30T07:38:17;12.80;81.10
53926;DHT22;39836;52.754;6.866;2022-10-30T07:40:43;12.90;81.10
53926;DHT22;39836;52.754;6.866;2022-10-30T07:43:09;13.00;81.20
53926;DHT22;39836;52.754;6.866;2022-10-30T07:45:38;13.10;81.20
53926;DHT22;39836;52.754;6.866;2022-10-30T07:48:04;13.20;81.20
53926;DHT22;39836;52.754;6.866;2022-10-30T07:50:31;13.20;81.20
53926;DHT22;39836;52.754;6.866;2022-10-30T07:52:57;13.30;81.20
53926;DHT22;39836;52.754;6.866;2022-10-30T07:55:23;13.40;81.20
53926;DHT22;39836;52.754;6.866;2022-10-30T07:57:48;13.50;81.30
53926;DHT22;39836;52.754;6.866;2022-10-30T08:00:15;13.50;81.20
53926;DHT22;39836;52.754;6.866;2022-10-30T08:02:41;13.70;81.20
53926;DHT22;39836;52.754;6.866;2022-10-30T08:05:07;13.70;81.20
53926;DHT22;39836;52.754;6.866;2022-10-30T08:07:35;13.90;81.20
53926;DHT22;39836;52.754;6.866;2022-10-30T08:10:01;14.00;81.20
53926;DHT22;39836;52.754;6.866;2022-10-30T08:12:27;14.10;81.20
53926;DHT22;39836;52.754;6.866;2022-10-30T08:14:53;14.20;81.20
53926;DHT22;39836;52.754;6.866;2022-10-30T08:17:19;14.30;81.10
53926;DHT22;39836;52.754;6.866;2022-10-30T08:19:46;14.30;81.10
53926;DHT22;39836;52.754;6.866;2022-10-30T08:22:12;14.40;81.10
53926;DHT22;39836;52.754;6.866;2022-10-30T08:24:38;14.50;81.10
53926;DHT22;39836;52.754;6.866;2022-10-30T08:27:04;14.60;81.00
53926;DHT22;39836;52.754;6.866;2022-10-30T08:29:30;14.70;81.00
53926;DHT22;39836;52.754;6.866;2022-10-30T08:31:56;14.70;81.00
53926;DHT22;39836;52.754;6.866;2022-10-30T08:34:22;14.80;81.00
53926;DHT22;39836;52.754;6.866;2022-10-30T08:36:49;14.90;81.00
53926;DHT22;39836;52.754;6.866;2022-10-30T08:39:16;15.00;80.90
53926;DHT22;39836;52.754;6.866;2022-10-30T08:41:42;15.00;80.90
53926;DHT22;39836;52.754;6.866;2022-10-30T08:44:08;15.10;80.90
53926;DHT22;39836;52.754;6.866;2022-10-30T08:46:33;15.20;80.90
53926;DHT22;39836;52.754;6.866;2022-10-30T08:48:59;15.30;80.90
53926;DHT22;39836;52.754;6.866;2022-10-30T08:51:25;15.40;80.80
53926;DHT22;39836;52.754;6.866;2022-10-30T08:53:51;15.50;80.80
53926;DHT22;39836;52.754;6.866;2022-10-30T08:56:17;15.60;80.70
53926;DHT22;39836;52.754;6.866;2022-10-30T08:58:43;15.60;80.70
53926;DHT22;39836;52.754;6.866;2022-10-30T09:01:09;15.70;80.70
53926;DHT22;39836;52.754;6.866;2022-10-30T09:03:35;15.70;80.60
53926;DHT22;39836;52.754;6.866;2022-10-30T09:06:00;15.70;80.60
53926;DHT22;39836;52.754;6.866;2022-10-30T09:08:27;15.80;80.70
53926;DHT22;39836;52.754;6.866;2022-10-30T09:10:54;15.80;80.60
53926;DHT22;39836;52.754;6.866;2022-10-30T09:13:20;15.80;80.60
53926;DHT22;39836;52.754;6.866;2022-10-30T09:15:46;15.90;80.50
53926;DHT22;39836;52.754;6.866;2022-10-30T09:18:11;15.90;80.50
53926;DHT22;39836;52.754;6.866;2022-10-30T09:20:37;16.00;80.40
53926;DHT22;39836;52.754;6.866;2022-10-30T09:23:03;16.00;80.40
53926;DHT22;39836;52.754;6.866;2022-10-30T09:25:29;16.10;80.40
53926;DHT22;39836;52.754;6.866;2022-10-30T09:27:54;16.10;80.40
53926;DHT22;39836;52.754;6.866;2022-10-30T09:30:20;16.20;80.50
53926;DHT22;39836;52.754;6.866;2022-10-30T09:32:56;16.20;80.40
53926;DHT22;39836;52.754;6.866;2022-10-30T09:35:22;16.30;80.40
53926;DHT22;39836;52.754;6.866;2022-10-30T09:37:47;16.40;80.30
53926;DHT22;39836;52.754;6.866;2022-10-30T09:56:30;17.00;80.00
53926;DHT22;39836;52.754;6.866;2022-10-30T09:59:48;17.20;80.00
53926;DHT22;39836;52.754;6.866;2022-10-30T10:01:54;17.30;79.80
53926;DHT22;39836;52.754;6.866;2022-10-30T10:04:59;17.40;79.80
53926;DHT22;39836;52.754;6.866;2022-10-30T10:07:33;17.50;79.50
53926;DHT22;39836;52.754;6.866;2022-10-30T10:10:03;17.50;79.70
53926;DHT22;39836;52.754;6.866;2022-10-30T10:12:42;17.50;79.80
53926;DHT22;39836;52.754;6.866;2022-10-30T10:17:58;17.60;79.70
53926;DHT22;39836;52.754;6.866;2022-10-30T10:20:39;17.60;79.70
53926;DHT22;39836;52.754;6.866;2022-10-30T10:23:20;17.60;79.70
53926;DHT22;39836;52.754;6.866;2022-10-30T10:25:53;17.70;79.70
53926;DHT22;39836;52.754;6.866;2022-10-30T10:28:46;17.70;79.60
53926;DHT22;39836;52.754;6.866;2022-10-30T10:36:48;18.00;79.60
53926;DHT22;39836;52.754;6.866;2022-10-30T10:45:36;18.30;79.40
53926;DHT22;39836;52.754;6.866;2022-10-30T10:54:01;18.60;79.20
53926;DHT22;39836;52.754;6.866;2022-10-30T10:56:34;18.70;79.20
53926;DHT22;39836;52.754;6.866;2022-10-30T10:59:03;18.80;79.20
53926;DHT22;39836;52.754;6.866;2022-10-30T11:01:38;18.90;79.00
53926;DHT22;39836;52.754;6.866;2022-10-30T11:04:31;19.00;78.60
53926;DHT22;39836;52.754;6.866;2022-10-30T11:07:03;19.10;78.90
53926;DHT22;39836;52.754;6.866;2022-10-30T11:09:31;19.20;78.50
53926;DHT22;39836;52.754;6.866;2022-10-30T11:11:56;19.40;78.70
53926;DHT22;39836;52.754;6.866;2022-10-30T11:14:27;19.60;78.80
53926;DHT22;39836;52.754;6.866;2022-10-30T11:17:09;19.60;78.70
53926;DHT22;39836;52.754;6.866;2022-10-30T11:19:37;19.70;78.40
53926;DHT22;39836;52.754;6.866;2022-10-30T11:22:42;19.80;78.50
53926;DHT22;39836;52.754;6.866;2022-10-30T11:25:20;19.80;78.00
53926;DHT22;39836;52.754;6.866;2022-10-30T11:27:48;19.80;78.30
53926;DHT22;39836;52.754;6.866;2022-10-30T11:30:23;19.80;78.30
53926;DHT22;39836;52.754;6.866;2022-10-30T11:32:50;19.80;78.30
53926;DHT22;39836;52.754;6.866;2022-10-30T11:35:18;19.80;78.40
53926;DHT22;39836;52.754;6.866;2022-10-30T11:37:46;19.90;78.40
53926;DHT22;39836;52.754;6.866;2022-10-30T11:42:39;20.00;78.30
53926;DHT22;39836;52.754;6.866;2022-10-30T11:45:19;20.10;78.30
53926;DHT22;39836;52.754;6.866;2022-10-30T11:47:48;20.20;78.20
53926;DHT22;39836;52.754;6.866;2022-10-30T11:50:21;20.30;78.20
53926;DHT22;39836;52.754;6.866;2022-10-30T11:52:55;20.30;78.00
53926;DHT22;39836;52.754;6.866;2022-10-30T11:57:59;20.50;78.10
53926;DHT22;39836;52.754;6.866;2022-10-30T12:00:30;20.60;77.90
53926;DHT22;39836;52.754;6.866;2022-10-30T15:38:23;18.70;78.60
53926;DHT22;39836;52.754;6.866;2022-10-30T15:41:09;18.50;78.70
53926;DHT22;39836;52.754;6.866;2022-10-30T15:44:15;18.40;78.80
53926;DHT22;39836;52.754;6.866;2022-10-30T15:46:46;18.40;78.90
53926;DHT22;39836;52.754;6.866;2022-10-30T15:49:20;18.30;79.00
53926;DHT22;39836;52.754;6.866;2022-10-30T15:51:49;18.30;79.10
53926;DHT22;39836;52.754;6.866;2022-10-30T15:54:17;18.20;79.00
53926;DHT22;39836;52.754;6.866;2022-10-30T15:56:47;18.20;79.20
53926;DHT22;39836;52.754;6.866;2022-10-30T15:59:29;18.10;79.20
53926;DHT22;39836;52.754;6.866;2022-10-30T16:01:56;18.00;79.20
53926;DHT22;39836;52.754;6.866;2022-10-30T16:04:35;17.90;79.20
53926;DHT22;39836;52.754;6.866;2022-10-30T16:07:15;17.90;79.40
53926;DHT22;39836;52.754;6.866;2022-10-30T16:09:59;17.80;79.40
53926;DHT22;39836;52.754;6.866;2022-10-30T16:12:32;17.70;79.60
53926;DHT22;39836;52.754;6.866;2022-10-30T16:15:06;17.60;79.60
53926;DHT22;39836;52.754;6.866;2022-10-30T16:17:33;17.60;79.60
53926;DHT22;39836;52.754;6.866;2022-10-30T16:20:01;17.50;79.50
53926;DHT22;39836;52.754;6.866;2022-10-30T16:22:30;17.40;79.50
53926;DHT22;39836;52.754;6.866;2022-10-30T16:24:58;17.40;79.60
53926;DHT22;39836;52.754;6.866;2022-10-30T16:27:24;17.40;79.80
53926;DHT22;39836;52.754;6.866;2022-10-30T16:29:57;17.30;80.00
53926;DHT22;39836;52.754;6.866;2022-10-30T16:32:26;17.20;80.00
53926;DHT22;39836;52.754;6.866;2022-10-30T16:34:56;17.20;80.00
53926;DHT22;39836;52.754;6.866;2022-10-30T16:37:25;17.10;80.10
53926;DHT22;39836;52.754;6.866;2022-10-30T16:39:53;17.10;80.20
53926;DHT22;39836;52.754;6.866;2022-10-30T16:42:22;17.00;80.20
53926;DHT22;39836;52.754;6.866;2022-10-30T16:44:48;17.00;80.10
53926;DHT22;39836;52.754;6.866;2022-10-30T16:49:51;17.10;80.20
53926;DHT22;39836;52.754;6.866;2022-10-30T16:52:21;17.00;80.00
53926;DHT22;39836;52.754;6.866;2022-10-30T16:55:03;17.00;79.90
53926;DHT22;39836;52.754;6.866;2022-10-30T16:57:40;17.00;79.80
53926;DHT22;39836;52.754;6.866;2022-10-30T17:00:17;16.90;79.80
53926;DHT22;39836;52.754;6.866;2022-10-30T17:02:46;16.90;79.90
53926;DHT22;39836;52.754;6.866;2022-10-30T17:05:25;16.80;79.80
53926;DHT22;39836;52.754;6.866;2022-10-30T17:08:03;16.80;79.80
53926;DHT22;39836;52.754;6.866;2022-10-30T17:10:41;16.80;79.90
53926;DHT22;39836;52.754;6.866;2022-10-30T17:15:54;16.80;80.00
53926;DHT22;39836;52.754;6.866;2022-10-30T17:18:29;16.70;79.80
53926;DHT22;39836;52.754;6.866;2022-10-30T17:21:20;16.40;79.60
53926;DHT22;39836;52.754;6.866;2022-10-30T17:23:48;16.30;79.70
53926;DHT22;39836;52.754;6.866;2022-10-30T17:26:15;16.30;79.70
53926;DHT22;39836;52.754;6.866;2022-10-30T17:28:41;16.20;79.80
53926;DHT22;39836;52.754;6.866;2022-10-30T17:33:42;16.20;80.00
53926;DHT22;39836;52.754;6.866;2022-10-30T17:36:08;16.20;80.00
53926;DHT22;39836;52.754;6.866;2022-10-30T17:38:34;16.20;80.10
53926;DHT22;39836;52.754;6.866;2022-10-30T17:41:00;16.30;79.90
53926;DHT22;39836;52.754;6.866;2022-10-30T17:43:32;16.20;79.80
53926;DHT22;39836;52.754;6.866;2022-10-30T17:45:58;16.20;79.90
53926;DHT22;39836;52.754;6.866;2022-10-30T17:48:26;16.20;79.90
53926;DHT22;39836;52.754;6.866;2022-10-30T17:50:52;16.20;80.00
53926;DHT22;39836;52.754;6.866;2022-10-30T17:53:20;16.10;80.00
53926;DHT22;39836;52.754;6.866;2022-10-30T17:56:02;16.10;79.90
53926;DHT22;39836;52.754;6.866;2022-10-30T17:58:29;16.10;79.90
53926;DHT22;39836;52.754;6.866;2022-10-30T18:00:57;16.10;79.90
53926;DHT22;39836;52.754;6.866;2022-10-30T18:03:22;16.10;79.90
53926;DHT22;39836;52.754;6.866;2022-10-30T18:05:48;16.10;79.90
53926;DHT22;39836;52.754;6.866;2022-10-30T18:08:14;16.10;79.90
53926;DHT22;39836;52.754;6.866;2022-10-30T18:10:39;16.10;79.90
53926;DHT22;39836;52.754;6.866;2022-10-30T18:13:05;16.10;79.80
53926;DHT22;39836;52.754;6.866;2022-10-30T18:15:34;16.10;79.80
53926;DHT22;39836;52.754;6.866;2022-10-30T18:18:01;16.10;79.80
53926;DHT22;39836;52.754;6.866;2022-10-30T18:20:28;16.00;79.70
53926;DHT22;39836;52.754;6.866;2022-10-30T18:22:54;15.90;79.70
53926;DHT22;39836;52.754;6.866;2022-10-30T18:25:25;15.90;79.70
53926;DHT22;39836;52.754;6.866;2022-10-30T18:27:51;15.90;79.60
53926;DHT22;39836;52.754;6.866;2022-10-30T18:30:17;15.90;79.60
53926;DHT22;39836;52.754;6.866;2022-10-30T18:32:44;15.90;79.60
53926;DHT22;39836;52.754;6.866;2022-10-30T18:35:21;15.80;79.60
53926;DHT22;39836;52.754;6.866;2022-10-30T18:37:48;15.80;79.60
53926;DHT22;39836;52.754;6.866;2022-10-30T18:40:14;15.80;79.60
53926;DHT22;39836;52.754;6.866;2022-10-30T18:42:40;15.80;79.60
53926;DHT22;39836;52.754;6.866;2022-10-30T18:45:22;15.80;79.60
53926;DHT22;39836;52.754;6.866;2022-10-30T18:47:49;15.80;79.70
53926;DHT22;39836;52.754;6.866;2022-10-30T18:50:17;15.90;79.70
53926;DHT22;39836;52.754;6.866;2022-10-30T18:52:43;15.90;79.70
53926;DHT22;39836;52.754;6.866;2022-10-30T18:55:21;15.90;79.70
53926;DHT22;39836;52.754;6.866;2022-10-30T18:57:48;15.80;79.70
53926;DHT22;39836;52.754;6.866;2022-10-30T19:00:17;15.80;79.70
53926;DHT22;39836;52.754;6.866;2022-10-30T19:02:43;15.90;79.70
53926;DHT22;39836;52.754;6.866;2022-10-30T19:05:29;15.80;79.70
53926;DHT22;39836;52.754;6.866;2022-10-30T19:07:55;15.80;79.70
53926;DHT22;39836;52.754;6.866;2022-10-30T19:10:22;15.80;79.90
53926;DHT22;39836;52.754;6.866;2022-10-30T19:12:48;15.80;79.80
53926;DHT22;39836;52.754;6.866;2022-10-30T19:15:20;15.80;79.70
53926;DHT22;39836;52.754;6.866;2022-10-30T19:17:47;15.80;79.70
53926;DHT22;39836;52.754;6.866;2022-10-30T19:20:13;15.80;79.80
53926;DHT22;39836;52.754;6.866;2022-10-30T19:22:38;15.70;79.70
53926;DHT22;39836;52.754;6.866;2022-10-30T19:25:34;15.70;79.80
53926;DHT22;39836;52.754;6.866;2022-10-30T19:28:00;15.70;80.00
53926;DHT22;39836;52.754;6.866;2022-10-30T19:30:26;15.60;79.90
53926;DHT22;39836;52.754;6.866;2022-10-30T19:32:53;15.70;79.90
53926;DHT22;39836;52.754;6.866;2022-10-30T19:35:20;15.60;80.00
53926;DHT22;39836;52.754;6.866;2022-10-30T19:37:54;15.60;80.00
53926;DHT22;39836;52.754;6.866;2022-10-30T19:40:26;15.60;80.20
53926;DHT22;39836;52.754;6.866;2022-10-30T19:42:53;15.70;80.40
53926;DHT22;39836;52.754;6.866;2022-10-30T19:45:21;15.70;80.30
53926;DHT22;39836;52.754;6.866;2022-10-30T19:47:52;15.70;80.40
53926;DHT22;39836;52.754;6.866;2022-10-30T19:52:44;15.70;80.60
53926;DHT22;39836;52.754;6.866;2022-10-30T19:55:09;15.70;80.50
53926;DHT22;39836;52.754;6.866;2022-10-30T19:57:35;15.70;80.60
53926;DHT22;39836;52.754;6.866;2022-10-30T20:00:01;15.70;80.60
53926;DHT22;39836;52.754;6.866;2022-10-30T20:02:27;15.70;80.70
53926;DHT22;39836;52.754;6.866;2022-10-30T20:04:53;15.70;80.70
53926;DHT22;39836;52.754;6.866;2022-10-30T20:07:18;15.70;80.70
53926;DHT22;39836;52.754;6.866;2022-10-30T20:09:44;15.80;80.70
53926;DHT22;39836;52.754;6.866;2022-10-30T20:12:10;15.80;80.70
53926;DHT22;39836;52.754;6.866;2022-10-30T20:14:35;15.80;80.80
53926;DHT22;39836;52.754;6.866;2022-10-30T20:17:04;15.80;80.80
53926;DHT22;39836;52.754;6.866;2022-10-30T20:19:30;15.80;80.80
53926;DHT22;39836;52.754;6.866;2022-10-30T20:21:56;15.70;80.80
53926;DHT22;39836;52.754;6.866;2022-10-30T20:24:22;15.70;80.90
53926;DHT22;39836;52.754;6.866;2022-10-30T20:26:49;15.70;80.90
53926;DHT22;39836;52.754;6.866;2022-10-30T20:29:15;15.70;80.80
53926;DHT22;39836;52.754;6.866;2022-10-30T20:31:41;15.70;80.90
53926;DHT22;39836;52.754;6.866;2022-10-30T20:34:07;15.70;80.90